McCaskill, Arkansas
Current Conditions -  °F | °C
As of 9:56 AM on Friday 31 Oct 2014 (Local Time) from KADF Reporting Station
Clear Clear  
Wind Chill: 60°   Ceiling: Unl
Heat Index: 60°   Visibility: 10mi
Dew Point: 48°   Wind: 14mph
Humidity: 64%   Direction: 10°N
Pressure: 30.2"   Gusts: NA
Location:  33.92°N, 93.64°W
Report Text: KADF 311456Z AUTO 01012KT 10SM CLR 16/09 A3020 RMK AO2 53022 T01550088 SLP241
Loading
Personal Weather Stations






























Interactive Weather Map
Tropical Storm Tracking
New forecast layout! Learn more

10-Day Weather Forecast

Advertisements
Track Severe Weather on mobile